Aérodrome :
LOGIN :

S'inscrire | Disclaimer

   EN    FR    IT 

 










Légende :    VFR   VFR Marginal   IFR   IFR Intensif   IFR Très Intensif
Visi : 
Plafond : 
>= 8 km
>= 3000ft
5 à 8 km
1000 à 3000 ft
1500m à 5 km
500 à 1000 ft
800 à 1500m
200 à 500 ft
< 800m
< 200 ft
Symboles :   Orages  Brouillard  Fortes neiges  Fortes précipitations  Vent > 20 kt
SIGMETs :   Divers  Orages  Givrage  Turbulence  Onde Orograph.  Cendres Volcan.







- Altitude de l'aérodrome : -11 ft
- Code IATA : AMS


EHAM - Amsterdam Schiphol

DERNIER METAR :
  • 112255Z 32002KT 9999 BKN046 01/01 Q1025 NOSIG

METARs EXPIRÉS :
  • 112225Z 30001KT 9999 BKN046 01/01 Q1025 NOSIG
  • 112155Z 26001KT 9999 BKN047 01/01 Q1025 NOSIG
  • 112125Z 33001KT CAVOK 02/01 Q1025 NOSIG
  • 112055Z 05001KT CAVOK 02/01 Q1025 NOSIG
  • 112025Z 02001KT CAVOK 02/02 Q1025 NOSIG

TAF TAF EHAM
Valide du 11 à 18h jusqu'au 13 à 00h UTC


111712Z 1118/1224 VRB03KT 9999 SCT030
PROB40 1200/1209 6000 MIFG
PROB30
TEMPO 1202/1208 1200 BCFG
BECMG 1208/1211 10008KT
PROB30 1215/1224 BKN015
Pas de NOTAMs connus pour ce terrain.



MET'MAP, la Météo Aéronautique d'un coup d'oeil ! - Copyright ORBIFLY Décembre 2007 - Disclaimer

ORBIFLY MET'MAP TEAM :

Programmation & Développement : Alexandra Zaïnal
Conception & Développement : Baudouin d'Aumeries
Co-Programmation & Développement : Marc-Olivier Méhu
Soutien technique & logistique : Manuel Goepfert

Contact : metmap@orbifly.com




SOURCES & CREDITS :

   NOAA